Time;durP1;ratioP1;P1;durP2;ratioP2;P2;SDS_P1;SDS_P2;PMS_P1;PMS_P2;Temp;Humidity;BMP_temperature;BMP_pressure;BME280_temperature;BME280_humidity;BME280_pressure;Samples;Min_cycle;Max_cycle;Signal;HPM_P1;HPM_P2
2022/04/05 00:01:12;;;;;;;;;;;8.00;99.90;;;;;;5135054;27;19916;-65
2022/04/05 00:03:37;;;;;;;;;;;8.00;99.90;;;;;;5134982;27;19916;-67
2022/04/05 00:06:03;;;;;;;;;;;8.00;99.90;;;;;;5134853;27;19959;-66
2022/04/05 00:08:29;;;;;;;;;;;8.00;99.90;;;;;;5134472;27;19929;-65
2022/04/05 00:10:54;;;;;;;;;;;8.00;99.90;;;;;;5134542;27;19919;-66
2022/04/05 00:13:20;;;;;;;;;;;8.00;99.90;;;;;;5134489;27;20426;-66
2022/04/05 00:15:46;;;;;;;;;;;8.00;99.90;;;;;;5133338;27;19921;-66
2022/04/05 00:18:12;;;;;;;;;;;8.00;99.90;;;;;;5133252;27;19956;-65
2022/04/05 00:20:38;;;;;;;;;;;7.90;99.90;;;;;;5135712;27;19915;-68
2022/04/05 00:23:03;;;;;;;;;;;7.90;99.90;;;;;;5133871;27;19979;-68
2022/04/05 00:25:29;;;;;;;;;;;7.90;99.90;;;;;;5134773;27;19919;-68
2022/04/05 00:27:54;;;;;;;;;;;7.90;99.90;;;;;;5134352;27;19922;-68
2022/04/05 00:30:20;;;;;;;;;;;7.90;99.90;;;;;;5134348;27;19977;-68
2022/04/05 00:32:45;;;;;;;;;;;7.80;99.90;;;;;;5134702;27;19973;-68
2022/04/05 00:35:11;;;;;;;;;;;7.90;99.90;;;;;;5134560;27;19930;-70
2022/04/05 00:37:37;;;;;;;;;;;7.90;99.90;;;;;;5134217;27;19915;-68
2022/04/05 00:40:04;;;;;;;;;;;7.80;99.90;;;;;;5133774;27;19923;-69
2022/04/05 00:42:30;;;;;;;;;;;7.90;99.90;;;;;;5115676;27;19920;-68
2022/04/05 00:44:55;;;;;;;;;;;7.90;99.90;;;;;;5134096;27;19916;-68
2022/04/05 00:47:22;;;;;;;;;;;7.80;99.90;;;;;;5133852;27;19931;-69
2022/04/05 00:49:49;;;;;;;;;;;7.80;99.90;;;;;;5133550;27;19915;-68
2022/04/05 00:52:15;;;;;;;;;;;7.80;99.90;;;;;;5133823;27;20039;-67
2022/04/05 00:54:43;;;;;;;;;;;7.80;99.90;;;;;;5133506;27;20394;-69
2022/04/05 00:57:10;;;;;;;;;;;7.80;99.90;;;;;;5134012;27;19967;-68
2022/04/05 00:59:38;;;;;;;;;;;7.70;99.90;;;;;;5133409;27;19916;-69
2022/04/05 01:02:03;;;;;;;;;;;7.80;99.90;;;;;;5133525;27;19915;-69
2022/04/05 01:04:30;;;;;;;;;;;7.80;99.90;;;;;;5133522;27;19981;-68
2022/04/05 01:06:56;;;;;;;;;;;7.70;99.90;;;;;;5133547;27;19915;-68
2022/04/05 01:09:22;;;;;;;;;;;7.80;99.90;;;;;;5131790;27;19915;-68
2022/04/05 01:11:48;;;;;;;;;;;7.80;99.90;;;;;;5133437;27;19923;-69
2022/04/05 01:14:13;;;;;;;;;;;7.70;99.90;;;;;;5133493;27;20001;-67
2022/04/05 01:16:39;;;;;;;;;;;7.70;99.90;;;;;;5133400;27;20394;-68
2022/04/05 01:19:06;;;;;;;;;;;7.70;99.90;;;;;;5131708;27;20010;-68
2022/04/05 01:21:31;;;;;;;;;;;7.70;99.90;;;;;;5133274;27;20013;-67
2022/04/05 01:24:10;;;;;;;;;;;7.70;99.90;;;;;;5133227;27;20010;-67
2022/04/05 01:26:45;;;;;;;;;;;7.70;99.90;;;;;;5133462;27;19916;-68
2022/04/05 01:29:11;;;;;;;;;;;7.60;99.90;;;;;;5132740;27;20405;-68
2022/04/05 01:31:38;;;;;;;;;;;7.60;99.90;;;;;;5133040;27;20394;-68
2022/04/05 01:34:03;;;;;;;;;;;7.60;99.90;;;;;;5133002;27;19974;-68
2022/04/05 01:36:29;;;;;;;;;;;7.70;99.90;;;;;;5132980;27;20377;-69
2022/04/05 01:38:54;;;;;;;;;;;7.70;99.90;;;;;;5131320;27;19918;-69
2022/04/05 01:41:20;;;;;;;;;;;7.70;99.90;;;;;;5114738;27;19970;-68
2022/04/05 01:43:45;;;;;;;;;;;7.60;99.90;;;;;;5114433;27;19922;-67
2022/04/05 01:46:11;;;;;;;;;;;7.60;99.90;;;;;;5132601;27;19954;-67
2022/04/05 01:48:36;;;;;;;;;;;7.60;99.90;;;;;;5131387;27;19916;-69
2022/04/05 01:51:02;;;;;;;;;;;7.60;99.90;;;;;;5132596;27;20020;-68
2022/04/05 01:53:27;;;;;;;;;;;7.60;99.90;;;;;;5132664;27;20390;-68
2022/04/05 01:55:53;;;;;;;;;;;7.60;99.90;;;;;;5132927;27;19916;-68
2022/04/05 01:58:18;;;;;;;;;;;7.60;99.90;;;;;;5132468;27;20006;-67
2022/04/05 02:00:44;;;;;;;;;;;7.60;99.90;;;;;;5132524;27;19919;-68
2022/04/05 02:03:09;;;;;;;;;;;7.60;99.90;;;;;;5132580;27;19915;-68
2022/04/05 02:05:35;;;;;;;;;;;7.60;99.90;;;;;;5131252;27;19958;-68
2022/04/05 02:08:00;;;;;;;;;;;7.60;99.90;;;;;;5132783;27;19937;-67
2022/04/05 02:10:26;;;;;;;;;;;7.60;99.90;;;;;;5132350;27;19919;-68
2022/04/05 02:12:54;;;;;;;;;;;7.60;99.90;;;;;;5132456;27;19915;-68
2022/04/05 02:15:20;;;;;;;;;;;7.60;99.90;;;;;;5132420;27;20014;-67
2022/04/05 02:17:45;;;;;;;;;;;7.50;99.90;;;;;;5132487;27;20406;-69
2022/04/05 02:20:13;;;;;;;;;;;7.60;99.90;;;;;;5131966;27;19919;-67
2022/04/05 02:22:38;;;;;;;;;;;7.60;99.90;;;;;;5132296;27;20370;-67
2022/04/05 02:25:04;;;;;;;;;;;7.50;99.90;;;;;;5132436;27;20003;-68
2022/04/05 02:27:30;;;;;;;;;;;7.50;99.90;;;;;;5132473;27;19923;-69
2022/04/05 02:29:55;;;;;;;;;;;7.50;99.90;;;;;;5132031;27;20447;-68
2022/04/05 02:32:20;;;;;;;;;;;7.50;99.90;;;;;;5132315;27;20069;-68
2022/04/05 02:34:46;;;;;;;;;;;7.50;99.90;;;;;;5130878;28;20426;-68
2022/04/05 02:37:11;;;;;;;;;;;7.50;99.90;;;;;;5132390;27;19915;-67
2022/04/05 02:39:37;;;;;;;;;;;7.50;99.90;;;;;;5132048;27;19962;-67
2022/04/05 02:42:03;;;;;;;;;;;7.40;99.90;;;;;;5132198;27;20010;-68
2022/04/05 02:44:28;;;;;;;;;;;7.40;99.90;;;;;;5133017;27;19915;-69
2022/04/05 02:46:54;;;;;;;;;;;7.40;99.90;;;;;;5136165;27;19919;-67
2022/04/05 02:49:19;;;;;;;;;;;7.40;99.90;;;;;;5135956;27;19972;-68
2022/04/05 02:51:45;;;;;;;;;;;7.50;99.90;;;;;;5136203;27;19923;-68
2022/04/05 02:54:10;;;;;;;;;;;7.50;99.90;;;;;;5135570;27;19923;-68
2022/04/05 02:56:36;;;;;;;;;;;7.40;99.90;;;;;;5136245;27;19915;-68
2022/04/05 02:59:01;;;;;;;;;;;7.40;99.90;;;;;;5136729;27;20556;-69
2022/04/05 03:01:27;;;;;;;;;;;7.40;99.90;;;;;;5139093;27;20002;-68
2022/04/05 03:03:52;;;;;;;;;;;7.40;99.90;;;;;;5138508;27;19941;-69
2022/04/05 03:06:18;;;;;;;;;;;7.40;99.90;;;;;;5138298;27;19919;-68
2022/04/05 03:08:43;;;;;;;;;;;7.40;99.90;;;;;;5137270;27;19915;-68
2022/04/05 03:11:09;;;;;;;;;;;7.40;99.90;;;;;;5135916;27;20005;-68
2022/04/05 03:13:35;;;;;;;;;;;7.40;99.90;;;;;;5135525;27;19962;-69
2022/04/05 03:16:00;;;;;;;;;;;7.40;99.90;;;;;;5135652;27;19923;-69
2022/04/05 03:18:26;;;;;;;;;;;7.40;99.90;;;;;;5135368;27;19923;-67
2022/04/05 03:20:52;;;;;;;;;;;7.40;99.90;;;;;;5135761;27;19919;-68
2022/04/05 03:23:20;;;;;;;;;;;7.40;99.90;;;;;;5134378;27;19915;-68
2022/04/05 03:25:46;;;;;;;;;;;7.40;99.90;;;;;;5135549;27;19923;-68
2022/04/05 03:28:11;;;;;;;;;;;7.40;99.90;;;;;;5135561;27;19922;-68
2022/04/05 03:30:36;;;;;;;;;;;7.40;99.90;;;;;;5135224;27;19916;-68
2022/04/05 03:33:02;;;;;;;;;;;7.40;99.90;;;;;;5135437;27;19923;-68
2022/04/05 03:35:27;;;;;;;;;;;7.40;99.90;;;;;;5135273;27;20342;-68
2022/04/05 03:37:53;;;;;;;;;;;7.40;99.90;;;;;;5134228;27;19915;-69
2022/04/05 03:40:18;;;;;;;;;;;7.50;99.90;;;;;;5135103;27;20446;-67
2022/04/05 03:42:44;;;;;;;;;;;7.40;99.90;;;;;;5135317;27;19975;-69
2022/04/05 03:45:10;;;;;;;;;;;7.50;99.90;;;;;;5133935;27;20397;-68
2022/04/05 03:47:35;;;;;;;;;;;7.50;99.90;;;;;;5134986;27;20295;-69
2022/04/05 03:50:01;;;;;;;;;;;7.40;99.90;;;;;;5134910;27;19926;-68
2022/04/05 03:52:26;;;;;;;;;;;7.40;99.90;;;;;;5135161;27;19919;-67
2022/04/05 03:54:52;;;;;;;;;;;7.40;99.90;;;;;;5135003;27;19926;-67
2022/04/05 03:57:17;;;;;;;;;;;7.50;99.90;;;;;;5133846;27;19915;-67
2022/04/05 03:59:43;;;;;;;;;;;7.40;99.90;;;;;;5134699;27;20424;-68
2022/04/05 04:02:08;;;;;;;;;;;7.40;99.90;;;;;;5133695;27;20003;-67
2022/04/05 04:04:34;;;;;;;;;;;7.40;99.90;;;;;;5135083;27;19962;-69
2022/04/05 04:06:59;;;;;;;;;;;7.50;99.90;;;;;;5134689;27;19915;-67
2022/04/05 04:09:25;;;;;;;;;;;7.50;99.90;;;;;;5134614;27;19915;-68
2022/04/05 04:11:50;;;;;;;;;;;7.50;99.90;;;;;;5135338;27;19919;-68
2022/04/05 04:14:16;;;;;;;;;;;7.50;99.90;;;;;;5137091;27;19919;-68
2022/04/05 04:16:42;;;;;;;;;;;7.50;99.90;;;;;;5137136;27;19957;-68
2022/04/05 04:19:07;;;;;;;;;;;7.40;99.90;;;;;;5135393;27;19916;-68
2022/04/05 04:21:33;;;;;;;;;;;7.50;99.90;;;;;;5135096;27;19915;-68
2022/04/05 04:23:59;;;;;;;;;;;7.40;99.90;;;;;;5134591;27;19916;-68
2022/04/05 04:26:24;;;;;;;;;;;7.40;99.90;;;;;;5134371;27;20272;-69
2022/04/05 04:28:52;;;;;;;;;;;7.40;99.90;;;;;;5134124;27;19919;-68
2022/04/05 04:31:18;;;;;;;;;;;7.40;99.90;;;;;;5134174;27;19922;-68
2022/04/05 04:33:43;;;;;;;;;;;7.40;99.90;;;;;;5134300;27;20383;-68
2022/04/05 04:36:09;;;;;;;;;;;7.40;99.90;;;;;;5134301;27;19919;-68
2022/04/05 04:38:34;;;;;;;;;;;7.40;99.90;;;;;;5133977;27;19919;-68
2022/04/05 04:41:00;;;;;;;;;;;7.40;99.90;;;;;;5134113;27;19919;-67
2022/04/05 04:43:27;;;;;;;;;;;7.40;99.90;;;;;;5133951;27;20455;-67
2022/04/05 04:45:53;;;;;;;;;;;7.40;99.90;;;;;;5132214;27;19915;-67
2022/04/05 04:48:19;;;;;;;;;;;7.40;99.90;;;;;;5133831;27;20610;-68
2022/04/05 04:50:46;;;;;;;;;;;7.40;99.90;;;;;;5133353;27;19923;-68
2022/04/05 04:53:11;;;;;;;;;;;7.40;99.90;;;;;;5133784;27;19916;-68
2022/04/05 04:55:37;;;;;;;;;;;7.40;99.90;;;;;;5133577;27;19919;-69
2022/04/05 04:58:02;;;;;;;;;;;7.40;99.90;;;;;;5133756;27;20485;-68
2022/04/05 05:00:28;;;;;;;;;;;7.40;99.90;;;;;;5133115;27;19922;-68
2022/04/05 05:02:53;;;;;;;;;;;7.40;99.90;;;;;;5133827;27;20048;-69
2022/04/05 05:05:19;;;;;;;;;;;7.40;99.90;;;;;;5133084;27;20010;-68
2022/04/05 05:07:47;;;;;;;;;;;7.40;99.90;;;;;;5130374;27;20379;-68
2022/04/05 05:10:13;;;;;;;;;;;7.40;99.90;;;;;;5129431;27;20289;-68
2022/04/05 05:12:40;;;;;;;;;;;7.40;99.90;;;;;;5131270;27;19923;-68
2022/04/05 05:15:10;;;;;;;;;;;7.40;99.90;;;;;;5133257;27;19919;-69
2022/04/05 05:17:35;;;;;;;;;;;7.40;99.90;;;;;;5133051;27;19915;-67
2022/04/05 05:20:04;;;;;;;;;;;7.40;99.90;;;;;;5132623;27;20382;-68
2022/04/05 05:22:29;;;;;;;;;;;7.40;99.90;;;;;;5132619;27;19974;-69
2022/04/05 05:24:55;;;;;;;;;;;7.40;99.90;;;;;;5133349;27;20352;-67
2022/04/05 05:27:20;;;;;;;;;;;7.40;99.90;;;;;;5133290;27;19915;-68
2022/04/05 05:29:46;;;;;;;;;;;7.40;99.90;;;;;;5131593;27;19980;-68
2022/04/05 05:32:11;;;;;;;;;;;7.40;99.90;;;;;;5133232;27;19921;-68
2022/04/05 05:34:37;;;;;;;;;;;7.40;99.90;;;;;;5133229;27;19926;-68
2022/04/05 05:37:03;;;;;;;;;;;7.40;99.90;;;;;;5133173;27;19922;-68
2022/04/05 05:39:28;;;;;;;;;;;7.40;99.90;;;;;;5132759;27;19922;-67
2022/04/05 05:41:54;;;;;;;;;;;7.40;99.90;;;;;;5132961;27;20006;-70
2022/04/05 05:44:20;;;;;;;;;;;7.40;99.90;;;;;;5132794;27;19919;-68
2022/04/05 05:46:46;;;;;;;;;;;7.40;99.90;;;;;;5132838;27;20417;-67
2022/04/05 05:49:11;;;;;;;;;;;7.50;99.90;;;;;;5132651;27;19981;-68
2022/04/05 05:51:37;;;;;;;;;;;7.40;99.90;;;;;;5132841;27;19924;-67
2022/04/05 05:54:02;;;;;;;;;;;7.50;99.90;;;;;;5131624;27;19919;-69
2022/04/05 05:56:28;;;;;;;;;;;7.50;99.90;;;;;;5132763;27;19975;-67
2022/04/05 05:58:53;;;;;;;;;;;7.50;99.90;;;;;;5132313;27;19919;-68
2022/04/05 06:01:19;;;;;;;;;;;7.50;99.90;;;;;;5132599;27;19919;-69
2022/04/05 06:03:46;;;;;;;;;;;7.50;99.90;;;;;;5132778;27;19998;-68
2022/04/05 06:06:11;;;;;;;;;;;7.50;99.90;;;;;;5132690;27;19919;-68
2022/04/05 06:08:37;;;;;;;;;;;7.50;99.90;;;;;;5132268;27;19915;-71
2022/04/05 06:11:02;;;;;;;;;;;7.50;99.90;;;;;;5095349;27;19959;-68
2022/04/05 06:13:28;;;;;;;;;;;7.60;99.90;;;;;;5090271;28;19916;-69
2022/04/05 06:15:53;;;;;;;;;;;7.60;99.90;;;;;;5091427;28;20033;-69
2022/04/05 06:18:18;;;;;;;;;;;7.60;99.90;;;;;;5091801;28;19970;-71
2022/04/05 06:20:44;;;;;;;;;;;7.60;99.90;;;;;;5102280;28;19919;-69
2022/04/05 06:23:09;;;;;;;;;;;7.60;99.90;;;;;;5123307;27;20314;-69
2022/04/05 06:25:36;;;;;;;;;;;7.60;99.90;;;;;;5130919;28;19919;-69
2022/04/05 06:28:03;;;;;;;;;;;7.60;99.90;;;;;;5131138;28;19992;-69
2022/04/05 06:30:29;;;;;;;;;;;7.60;99.90;;;;;;5132108;27;19915;-68
2022/04/05 06:33:14;;;;;;;;;;;7.60;99.90;;;;;;5131244;28;19916;-68
2022/04/05 06:35:41;;;;;;;;;;;7.70;99.90;;;;;;5132253;27;20386;-69
2022/04/05 06:38:06;;;;;;;;;;;7.60;99.90;;;;;;5132082;27;20293;-69
2022/04/05 06:40:32;;;;;;;;;;;7.70;99.90;;;;;;5131833;27;19920;-70
2022/04/05 06:42:57;;;;;;;;;;;7.70;99.90;;;;;;5130915;28;20295;-68
2022/04/05 06:45:24;;;;;;;;;;;7.70;99.90;;;;;;5130826;28;19916;-68
2022/04/05 06:47:49;;;;;;;;;;;7.70;99.90;;;;;;5132303;27;19966;-68
2022/04/05 06:50:20;;;;;;;;;;;7.70;99.90;;;;;;5123134;27;20008;-68
2022/04/05 06:52:46;;;;;;;;;;;7.70;99.90;;;;;;5110371;28;20500;-68
2022/04/05 06:55:11;;;;;;;;;;;7.70;99.90;;;;;;5110309;28;20018;-68
2022/04/05 06:57:37;;;;;;;;;;;7.80;99.90;;;;;;5111827;28;19916;-68
2022/04/05 07:00:03;;;;;;;;;;;7.80;99.90;;;;;;5109887;28;20325;-68
2022/04/05 07:02:29;;;;;;;;;;;7.80;99.90;;;;;;5111573;28;20002;-68
2022/04/05 07:04:54;;;;;;;;;;;7.80;99.90;;;;;;5111545;28;20010;-69
2022/04/05 07:07:20;;;;;;;;;;;7.80;99.90;;;;;;5111475;28;20409;-69
2022/04/05 07:09:45;;;;;;;;;;;7.80;99.90;;;;;;5111064;28;19915;-69
2022/04/05 07:12:11;;;;;;;;;;;7.90;99.90;;;;;;5111570;28;20326;-69
2022/04/05 07:14:36;;;;;;;;;;;7.90;99.90;;;;;;5110080;28;20332;-68
2022/04/05 07:17:02;;;;;;;;;;;7.90;99.90;;;;;;5111302;28;19995;-68
2022/04/05 07:19:27;;;;;;;;;;;7.90;99.90;;;;;;5111036;28;19916;-68
2022/04/05 07:21:53;;;;;;;;;;;7.90;99.90;;;;;;5111236;28;19916;-68
2022/04/05 07:24:18;;;;;;;;;;;7.90;99.90;;;;;;5111165;28;20006;-70
2022/04/05 07:26:44;;;;;;;;;;;7.90;99.90;;;;;;5110083;28;20036;-69
2022/04/05 07:29:10;;;;;;;;;;;8.00;99.90;;;;;;5109930;28;20336;-69
2022/04/05 07:31:35;;;;;;;;;;;7.90;99.90;;;;;;5113556;28;20379;-69
2022/04/05 07:34:01;;;;;;;;;;;7.90;99.90;;;;;;5114879;28;20298;-69
2022/04/05 07:36:26;;;;;;;;;;;7.90;99.90;;;;;;5114902;28;20383;-69
2022/04/05 07:38:52;;;;;;;;;;;7.90;99.90;;;;;;5114467;28;20291;-68
2022/04/05 07:41:18;;;;;;;;;;;8.00;99.90;;;;;;5113444;28;19966;-69
2022/04/05 07:43:44;;;;;;;;;;;7.90;99.90;;;;;;5114900;28;19938;-68
2022/04/05 07:46:10;;;;;;;;;;;8.00;99.90;;;;;;5114668;28;20128;-71
2022/04/05 07:48:35;;;;;;;;;;;8.00;99.90;;;;;;5114402;28;19923;-70
2022/04/05 07:51:01;;;;;;;;;;;8.00;99.90;;;;;;5108380;28;19924;-68
2022/04/05 07:53:27;;;;;;;;;;;8.10;99.90;;;;;;5104004;28;20382;-68
2022/04/05 07:55:54;;;;;;;;;;;8.10;99.90;;;;;;5102809;28;19932;-68
2022/04/05 07:58:20;;;;;;;;;;;8.20;99.90;;;;;;5104400;28;19924;-68
2022/04/05 08:00:46;;;;;;;;;;;8.20;99.90;;;;;;5109269;28;19922;-70
2022/04/05 08:03:12;;;;;;;;;;;8.20;99.90;;;;;;5110991;28;19919;-70
2022/04/05 08:05:39;;;;;;;;;;;8.20;99.90;;;;;;5114281;28;19915;-71
2022/04/05 08:08:04;;;;;;;;;;;8.20;99.90;;;;;;5107298;28;19927;-71
2022/04/05 08:10:30;;;;;;;;;;;8.30;99.90;;;;;;5074517;28;19916;-70
2022/04/05 08:12:55;;;;;;;;;;;8.40;99.90;;;;;;5092928;28;19916;-69
2022/04/05 08:15:22;;;;;;;;;;;8.50;99.90;;;;;;5113430;28;19919;-69
2022/04/05 08:17:48;;;;;;;;;;;8.60;99.90;;;;;;5112524;28;19922;-69
2022/04/05 08:20:14;;;;;;;;;;;8.70;99.90;;;;;;5112948;28;19962;-69
2022/04/05 08:22:40;;;;;;;;;;;8.70;99.90;;;;;;5113550;28;19962;-70
2022/04/05 08:25:07;;;;;;;;;;;8.80;99.90;;;;;;5113799;28;19922;-69
2022/04/05 08:27:33;;;;;;;;;;;8.90;99.90;;;;;;5100873;28;20307;-70
2022/04/05 08:29:59;;;;;;;;;;;8.90;99.90;;;;;;5095051;28;20387;-70
2022/04/05 08:32:25;;;;;;;;;;;8.90;99.90;;;;;;5113358;28;19926;-71
2022/04/05 08:34:51;;;;;;;;;;;8.80;99.90;;;;;;5111797;28;19923;-70
2022/04/05 08:37:16;;;;;;;;;;;8.90;99.90;;;;;;5113127;28;20026;-71
2022/04/05 08:39:42;;;;;;;;;;;8.70;99.90;;;;;;5113032;28;19919;-70
2022/04/05 08:42:08;;;;;;;;;;;8.70;99.90;;;;;;5112428;28;19916;-69
2022/04/05 08:44:34;;;;;;;;;;;8.70;99.90;;;;;;5113282;28;19919;-70
2022/04/05 08:47:00;;;;;;;;;;;8.70;99.90;;;;;;5112906;28;19920;-70
2022/04/05 08:49:27;;;;;;;;;;;8.70;99.90;;;;;;5112756;28;19920;-70
2022/04/05 08:51:52;;;;;;;;;;;8.60;99.90;;;;;;5112870;28;19923;-70
2022/04/05 08:54:18;;;;;;;;;;;8.60;99.90;;;;;;5111549;28;19920;-70
2022/04/05 08:56:46;;;;;;;;;;;8.50;99.90;;;;;;5104950;28;19929;-70
2022/04/05 08:59:11;;;;;;;;;;;8.50;99.90;;;;;;5112530;28;19978;-70
2022/04/05 09:01:37;;;;;;;;;;;8.50;99.90;;;;;;5105191;28;19951;-70
2022/04/05 09:04:04;;;;;;;;;;;8.50;99.90;;;;;;5094892;28;19916;-70
2022/04/05 09:06:30;;;;;;;;;;;8.50;99.90;;;;;;5092475;28;19924;-72
2022/04/05 09:08:59;;;;;;;;;;;8.60;99.90;;;;;;5092188;28;19962;-70
2022/04/05 09:11:27;;;;;;;;;;;8.70;99.90;;;;;;5091235;28;20287;-70
2022/04/05 09:13:58;;;;;;;;;;;8.70;99.90;;;;;;5092109;28;20431;-70
2022/04/05 09:16:30;;;;;;;;;;;8.60;99.90;;;;;;5092072;28;19924;-70
2022/04/05 09:18:55;;;;;;;;;;;8.70;99.90;;;;;;5090345;28;19920;-69
2022/04/05 09:21:21;;;;;;;;;;;8.70;99.90;;;;;;5091799;28;19922;-71
2022/04/05 09:23:52;;;;;;;;;;;8.70;99.90;;;;;;5092172;28;19916;-70
2022/04/05 09:26:18;;;;;;;;;;;8.70;99.90;;;;;;5091883;28;19930;-70
2022/04/05 09:28:45;;;;;;;;;;;8.70;99.90;;;;;;5091686;28;20400;-71
2022/04/05 09:31:11;;;;;;;;;;;8.80;99.90;;;;;;5090483;28;19945;-71
2022/04/05 09:33:38;;;;;;;;;;;8.70;99.90;;;;;;5091834;28;20056;-71
2022/04/05 09:36:04;;;;;;;;;;;8.80;99.90;;;;;;5091480;28;19931;-71
2022/04/05 09:38:30;;;;;;;;;;;8.80;99.90;;;;;;5090268;28;19920;-70
2022/04/05 09:41:08;;;;;;;;;;;8.80;99.90;;;;;;5096345;28;20283;-70
2022/04/05 09:43:33;;;;;;;;;;;8.80;99.90;;;;;;5108737;28;19915;-71
2022/04/05 09:46:01;;;;;;;;;;;8.90;99.90;;;;;;5111717;28;20380;-70
2022/04/05 09:48:29;;;;;;;;;;;8.90;99.90;;;;;;5111719;28;19919;-70
2022/04/05 09:51:01;;;;;;;;;;;8.90;99.90;;;;;;5112002;28;19916;-70
2022/04/05 09:53:38;;;;;;;;;;;9.00;99.90;;;;;;5110483;28;19927;-69
2022/04/05 09:56:05;;;;;;;;;;;9.20;99.90;;;;;;5110088;28;20006;-70
2022/04/05 09:58:31;;;;;;;;;;;9.10;99.90;;;;;;5111243;28;19927;-69
2022/04/05 10:01:11;;;;;;;;;;;9.10;99.90;;;;;;5093404;28;20314;-70
2022/04/05 10:03:40;;;;;;;;;;;9.10;99.90;;;;;;5111856;28;19915;-70
2022/04/05 10:06:06;;;;;;;;;;;9.10;99.90;;;;;;5111729;28;19923;-70
2022/04/05 10:08:33;;;;;;;;;;;9.10;99.90;;;;;;5111429;28;20383;-69
2022/04/05 10:10:59;;;;;;;;;;;9.10;99.90;;;;;;5111080;28;19916;-69
2022/04/05 10:13:25;;;;;;;;;;;9.10;99.90;;;;;;5111201;28;19959;-72
2022/04/05 10:15:51;;;;;;;;;;;9.10;99.90;;;;;;5111838;28;20290;-72
2022/04/05 10:18:20;;;;;;;;;;;9.20;99.90;;;;;;5107088;28;20011;-71
2022/04/05 10:20:49;;;;;;;;;;;9.20;99.90;;;;;;5114677;28;19968;-70
2022/04/05 10:23:23;;;;;;;;;;;9.20;99.90;;;;;;5101220;27;19920;-69
2022/04/05 10:25:49;;;;;;;;;;;9.20;99.90;;;;;;5092091;28;19971;-70
2022/04/05 10:28:16;;;;;;;;;;;9.20;99.90;;;;;;5092578;28;20010;-70
2022/04/05 10:30:44;;;;;;;;;;;9.20;99.90;;;;;;5092382;28;19916;-71
2022/04/05 10:33:14;;;;;;;;;;;9.30;99.90;;;;;;5090816;28;19920;-71
2022/04/05 10:35:47;;;;;;;;;;;9.20;99.90;;;;;;5089395;28;19924;-71
2022/04/05 10:38:14;;;;;;;;;;;9.30;99.90;;;;;;5072746;28;19920;-69
2022/04/05 10:40:40;;;;;;;;;;;9.40;99.90;;;;;;5090044;28;19938;-71
2022/04/05 10:43:16;;;;;;;;;;;9.30;99.90;;;;;;5090734;28;19916;-70
2022/04/05 10:45:43;;;;;;;;;;;9.40;99.90;;;;;;5097042;28;19915;-71
2022/04/05 10:48:20;;;;;;;;;;;9.40;99.90;;;;;;5109837;28;19922;-70
2022/04/05 10:50:46;;;;;;;;;;;9.40;99.90;;;;;;5110531;28;19976;-69
2022/04/05 10:53:15;;;;;;;;;;;9.40;99.90;;;;;;5112928;28;19967;-71
2022/04/05 10:55:59;;;;;;;;;;;9.50;99.90;;;;;;5113869;28;20005;-71
2022/04/05 10:58:24;;;;;;;;;;;9.50;99.90;;;;;;5111038;28;20006;-72
2022/04/05 11:00:50;;;;;;;;;;;9.60;99.90;;;;;;5109085;28;19926;-72
2022/04/05 11:03:15;;;;;;;;;;;9.60;99.90;;;;;;5110677;28;20303;-70
2022/04/05 11:05:43;;;;;;;;;;;9.70;99.90;;;;;;5110726;28;19916;-70
2022/04/05 11:08:11;;;;;;;;;;;9.70;99.90;;;;;;5115104;28;19916;-70
2022/04/05 11:10:37;;;;;;;;;;;9.80;99.90;;;;;;5114849;28;19955;-70
2022/04/05 11:13:13;;;;;;;;;;;9.90;99.90;;;;;;5114941;28;20421;-71
2022/04/05 11:15:40;;;;;;;;;;;10.00;99.90;;;;;;5114836;28;19931;-71
2022/04/05 11:18:07;;;;;;;;;;;10.10;99.90;;;;;;5115080;28;19938;-70
2022/04/05 11:20:34;;;;;;;;;;;10.10;99.90;;;;;;5114587;28;19915;-71
2022/04/05 11:23:00;;;;;;;;;;;10.20;99.90;;;;;;5114692;28;20397;-70
2022/04/05 11:25:26;;;;;;;;;;;10.30;99.90;;;;;;5114770;28;20056;-70
2022/04/05 11:27:53;;;;;;;;;;;10.30;99.90;;;;;;5114679;28;20442;-70
2022/04/05 11:30:27;;;;;;;;;;;10.40;99.90;;;;;;5110846;28;19923;-70
2022/04/05 11:33:15;;;;;;;;;;;10.40;99.90;;;;;;5104994;28;20371;-71
2022/04/05 11:35:45;;;;;;;;;;;10.50;99.90;;;;;;5104228;28;19924;-70
2022/04/05 11:38:17;;;;;;;;;;;10.50;99.90;;;;;;5115588;28;20002;-71
2022/04/05 11:40:43;;;;;;;;;;;10.50;99.90;;;;;;5114884;28;19943;-70
2022/04/05 11:43:16;;;;;;;;;;;10.60;99.90;;;;;;5113512;28;20378;-69
2022/04/05 11:45:43;;;;;;;;;;;10.70;99.90;;;;;;5113697;28;20352;-70
2022/04/05 11:48:13;;;;;;;;;;;10.70;99.90;;;;;;5114333;27;19915;-70
2022/04/05 11:50:39;;;;;;;;;;;10.80;99.90;;;;;;5114025;28;20359;-69
2022/04/05 11:53:21;;;;;;;;;;;10.80;99.90;;;;;;5112871;28;19968;-70
2022/04/05 11:56:05;;;;;;;;;;;10.80;99.90;;;;;;5113907;28;19930;-68
2022/04/05 11:58:34;;;;;;;;;;;10.70;99.90;;;;;;5113245;28;19998;-70
2022/04/05 12:01:01;;;;;;;;;;;10.70;99.90;;;;;;5114179;28;19931;-69
2022/04/05 12:03:28;;;;;;;;;;;10.80;99.90;;;;;;5114512;28;19915;-68
2022/04/05 12:05:53;;;;;;;;;;;10.80;99.90;;;;;;5113830;28;19916;-68
2022/04/05 12:08:19;;;;;;;;;;;10.80;99.90;;;;;;5113994;28;20029;-69
2022/04/05 12:10:44;;;;;;;;;;;10.80;99.90;;;;;;5114046;28;19971;-68
2022/04/05 12:13:10;;;;;;;;;;;10.80;99.90;;;;;;5114212;28;20024;-69
2022/04/05 12:15:36;;;;;;;;;;;10.80;99.90;;;;;;5112817;28;20049;-68
2022/04/05 12:18:18;;;;;;;;;;;10.80;99.90;;;;;;5112046;28;19923;-70
2022/04/05 12:20:54;;;;;;;;;;;10.80;99.90;;;;;;5113974;28;19915;-69
2022/04/05 12:23:20;;;;;;;;;;;10.80;99.90;;;;;;5095633;28;19981;-69
2022/04/05 12:26:01;;;;;;;;;;;10.80;99.90;;;;;;5095813;28;19916;-70
2022/04/05 12:28:27;;;;;;;;;;;10.80;99.90;;;;;;5113618;28;19955;-70
2022/04/05 12:30:52;;;;;;;;;;;10.80;99.90;;;;;;5091959;28;19970;-69
2022/04/05 12:33:24;;;;;;;;;;;10.90;99.90;;;;;;5093621;28;19923;-68
2022/04/05 12:35:49;;;;;;;;;;;10.90;99.90;;;;;;5093268;28;20450;-69
2022/04/05 12:38:15;;;;;;;;;;;11.00;99.90;;;;;;5075463;28;19963;-68
2022/04/05 12:40:41;;;;;;;;;;;11.00;99.90;;;;;;5093094;28;19916;-69
2022/04/05 12:43:17;;;;;;;;;;;11.10;99.90;;;;;;5093416;28;20332;-69
2022/04/05 12:45:43;;;;;;;;;;;11.20;99.90;;;;;;5093066;28;19951;-69
2022/04/05 12:48:19;;;;;;;;;;;11.20;99.90;;;;;;5091857;28;19963;-69
2022/04/05 12:50:45;;;;;;;;;;;11.10;99.90;;;;;;5091541;28;20406;-70
2022/04/05 12:53:13;;;;;;;;;;;11.10;99.90;;;;;;5093158;28;19916;-69
2022/04/05 12:55:38;;;;;;;;;;;11.20;99.90;;;;;;5092933;28;20414;-69
2022/04/05 12:58:04;;;;;;;;;;;11.10;99.90;;;;;;5091584;28;19916;-68
2022/04/05 13:00:33;;;;;;;;;;;11.00;99.90;;;;;;5092568;28;19920;-69
2022/04/05 13:03:11;;;;;;;;;;;11.10;99.90;;;;;;5092892;28;19938;-69
2022/04/05 13:08:33;;;;;;;;;;;11.00;99.90;;;;;;5092457;28;19988;-70
2022/04/05 13:10:58;;;;;;;;;;;11.00;99.90;;;;;;5092691;28;19916;-68
2022/04/05 13:13:36;;;;;;;;;;;11.00;99.90;;;;;;5092720;28;20023;-68
2022/04/05 13:16:02;;;;;;;;;;;11.00;99.90;;;;;;5092415;28;20007;-68
2022/04/05 13:18:40;;;;;;;;;;;11.00;99.90;;;;;;5092171;28;20024;-68
2022/04/05 13:21:06;;;;;;;;;;;11.00;99.90;;;;;;5091037;28;19917;-69
2022/04/05 13:23:33;;;;;;;;;;;11.00;99.90;;;;;;5092471;28;19916;-68
2022/04/05 13:25:59;;;;;;;;;;;11.00;99.90;;;;;;5092455;28;19999;-68
2022/04/05 13:28:34;;;;;;;;;;;10.90;99.90;;;;;;5091993;28;19920;-71
2022/04/05 13:31:11;;;;;;;;;;;10.90;99.90;;;;;;5092528;28;20015;-69
2022/04/05 13:33:36;;;;;;;;;;;10.90;99.90;;;;;;5092581;28;19916;-68
2022/04/05 13:36:02;;;;;;;;;;;10.90;99.90;;;;;;5092232;28;20384;-68
2022/04/05 13:38:27;;;;;;;;;;;10.80;99.90;;;;;;5091866;28;20437;-68
2022/04/05 13:40:54;;;;;;;;;;;10.80;99.90;;;;;;5092007;28;19923;-68
2022/04/05 13:43:20;;;;;;;;;;;10.80;99.90;;;;;;5092113;28;20391;-69
2022/04/05 13:45:46;;;;;;;;;;;10.70;99.90;;;;;;5092051;28;19916;-70
2022/04/05 13:48:11;;;;;;;;;;;10.80;99.90;;;;;;5092174;28;19916;-68
2022/04/05 13:50:37;;;;;;;;;;;10.70;99.90;;;;;;5090685;28;19922;-68
2022/04/05 13:53:02;;;;;;;;;;;10.70;99.90;;;;;;5092107;28;19916;-68
2022/04/05 13:55:28;;;;;;;;;;;10.70;99.90;;;;;;5091807;28;19924;-68
2022/04/05 13:57:53;;;;;;;;;;;10.80;99.90;;;;;;5092133;28;19920;-68
2022/04/05 14:00:19;;;;;;;;;;;10.70;99.90;;;;;;5090594;28;19920;-68
2022/04/05 14:02:44;;;;;;;;;;;10.70;99.90;;;;;;5091926;28;19927;-68
2022/04/05 14:05:10;;;;;;;;;;;10.70;99.90;;;;;;5091769;28;20402;-68
2022/04/05 14:07:37;;;;;;;;;;;10.70;99.90;;;;;;5091774;28;19923;-68
2022/04/05 14:10:03;;;;;;;;;;;10.70;99.90;;;;;;5091296;28;19916;-69
2022/04/05 14:12:29;;;;;;;;;;;10.70;99.90;;;;;;5091543;28;19916;-68
2022/04/05 14:14:54;;;;;;;;;;;10.70;99.90;;;;;;5073709;28;20295;-68
2022/04/05 14:17:20;;;;;;;;;;;10.60;99.90;;;;;;5090366;28;19924;-69
2022/04/05 14:19:45;;;;;;;;;;;10.60;99.90;;;;;;5090059;28;20325;-69
2022/04/05 14:22:12;;;;;;;;;;;10.60;99.90;;;;;;5091513;28;19916;-69
2022/04/05 14:24:37;;;;;;;;;;;10.60;99.90;;;;;;5091332;28;20050;-69
2022/04/05 14:27:04;;;;;;;;;;;10.60;99.90;;;;;;5090116;28;20007;-70